Terminal Aerodrome Forecast
Issued by NWS

Home | Current Version | Previous Version | Text Only | Print | Product List | Glossary On
Versions: 1 2 3 4 5 6 7 8 9 10 11 12 13 14 15 16 17 18 19
000
FTUS45 KGJT 260408 AAB
TAFTEX
TAF AMD
KTEX 260408Z 2604/2624 16005G15KT P6SM -SHRA SCT015 OVC020
     FM260600 16006KT P6SM VCSH SCT030 BKN050
     FM261000 16004KT P6SM VCFG SCT025 OVC050
     FM261400 VRB03KT P6SM SCT040 BKN080
     FM261900 28008KT P6SM VCSH SCT040 BKN080=

USA.gov is the U.S. government's official web portal to all federal, state and local government web resources and services.